Tiempo atmosférico en la estación meteorológica de Lorca, Zarcilla de Ramos, Murcia (674 m.)



Fecha
DESCASC
Temp. máxima en grados centígrados (hora)
DESCASC
Temp. mínima en grados centígrados (hora)
DESCASC
Temp. media en grados centígrados
DESCASC
Racha de viento máxima en m/sg (hora)
DESCASC
Velocidad máxima media en intervalos de 10 minutos(hora)
DESCASC
Precipitaciones diarias en mm
DESCASC
Precipitaciones de 00:00 a 06:00 en mm
DESCASC
Precipitaciones de 06:00 a 12:00 en mm
DESCASC
Precipitaciones de 12:00 a 18:00 en mm
DESCASC
Precipitaciones de 18:00 a 24:00 en mm
DESCASC
31-05-2020 28.9 (15:30) 9.7 (05:00) 19.3 9.17 (15:40) 5 (14:00) 0 0 0 0 0
30-05-2020 28.7 (17:10) 10.3 (06:20) 19.5 8.89 (16:40) 5.28 (17:30) 0 0 0 0 0
29-05-2020 29.5 (16:40) 10.2 (06:30) 19.8 10.28 (14:30) 5 (16:40) 0 0 0 0 0
28-05-2020 26 (18:10) 13 (00:00) 19.5 10 (15:20) 6.39 (12:00) 0 0 0 0 0
27-05-2020 27.5 (15:10) 13.2 (00:00) 20.3 10.56 (14:20) 5.83 (17:50) 0 0 0 0 0
26-05-2020 28.5 (15:00) 13.4 (00:00) 20.9 9.17 (18:30) 6.11 (18:00) 0 0 0 0 0
25-05-2020 28.8 (15:00) 11.5 (00:00) 20.1 9.17 (16:40) 5.83 (17:40) 0 0 0 0 0
24-05-2020 29 (15:20) 13.4 (00:00) 21.2 8.61 (15:50) 5.28 (19:20) 0 0 0 0 0
23-05-2020 32.9 (16:50) 14 (00:00) 23.5 8.06 (17:10) 5 (17:00) 0 0 0 0 0
22-05-2020 33.7 (15:20) 15.8 (00:00) 24.8 9.72 (17:40) 5.83 (17:40) 0 0 0 0 0
21-05-2020 32.2 (14:40) 16 (00:00) 24.1 9.44 (17:20) 5.83 (17:20) 0 0 0 0 0
20-05-2020 33.8 (15:30) 15.5 (00:00) 24.6 11.11 (15:40) 6.11 (16:10) 0 0 0 0 0
19-05-2020 30.5 (18:10) 11.6 (00:00) 21.1 9.44 (16:40) 4.72 (18:50) 0 0 0 0 0
18-05-2020 27.3 (18:10) 11.3 (00:00) 19.3 9.17 (16:00) 5 (08:20) 0 0 0 0 0
17-05-2020 21.5 (17:20) 10.8 (00:00) 16.2 9.44 (19:50) 4.44 (20:20) 35.6 0 0 28.6 7
16-05-2020 20.4 (13:40) 8.6 (00:00) 14.5 8.89 (16:10) 6.94 (16:10) 0.4 0 0 0.4 0
15-05-2020 14.9 (11:40) 10.5 (00:00) 12.7 6.11 (10:40) 4.72 (10:40) 3.2 0 0 3.2 0
14-05-2020 21.1 (19:10) 9.4 (00:00) 15.3 10.28 (14:50) 6.11 (06:10) 6.8 2 4.8 0 0
13-05-2020 24.4 (15:50) 8.1 (00:00) 16.3 8.89 (17:00) 5.56 (17:00) 0 0 0 0 0
12-05-2020 22.1 (12:10) 10.4 (00:00) 16.3 14.17 (21:50) 8.61 (22:00) 5.4 0 0 5.2 0.2
11-05-2020 25.3 (16:50) 10.2 (00:00) 17.7 12.78 (17:30) 7.5 (17:30) 0 0 0 0 0
10-05-2020 21.6 (17:40) 13 (00:00) 17.3 15.83 (18:10) 8.33 (15:50) 0 0 0 0 0
09-05-2020 26.1 (15:00) 13.1 (00:00) 19.6 10.83 (15:40) 6.67 (16:10) 0 0 0 0 0
08-05-2020 27.8 (15:30) 12.5 (00:00) 20.1 9.17 (15:00) 5.28 (15:30) 0 0 0 0 0
07-05-2020 26.9 (14:30) 11.9 (00:00) 19.4 9.44 (15:00) 5.28 (14:00) 0 0 0 0 0
06-05-2020 30.6 (15:10) 14 (00:00) 22.3 8.61 (16:20) 5.28 (16:20) 0 0 0 0 0
05-05-2020 32.2 (14:40) 13.1 (00:00) 22.7 7.22 (16:10) 4.72 (16:10) 0 0 0 0 0
04-05-2020 30.8 (16:00) 10 (00:00) 20.4 9.72 (15:50) 6.11 (13:10) 0 0 0 0 0
03-05-2020 31.3 (15:10) 11.5 (00:00) 21.4 8.89 (15:20) 5.83 (17:20) 0 0 0 0 0

Gráficas

Temp. máximas Temp. mínimas Temp. medias Precipitaciones Rachas de viento máximas Velocidades máximas media en intervalos de 10 minutos

Datos horarios

Fecha y hora oficial Temperatura (ºC) Velocidad del viento (km/h) Dirección del viento Racha (km/h) Dirección de racha Precipitación (mm) Presión (hPa) Tendencia (hPa) Humedad (%)
2020-06-01 23:00:00 17.5 3 Norte 10 Este 0 -- -- 61
2020-06-01 22:00:00 19.6 6 Este 12 Este 0 -- -- 54
2020-06-01 21:00:00 21.6 10 Este 21 Este 0 -- -- 49
2020-06-01 20:00:00 23.8 15 Este 23 Este 0 -- -- 44
2020-06-01 19:00:00 25.2 16 Sudeste 31 Sudeste 0 -- -- 40
2020-06-01 18:00:00 27.3 19 Sudeste 31 Sudeste 0 -- -- 38
2020-06-01 17:00:00 28.9 22 Sudeste 35 Sudeste 0 -- -- 35
2020-06-01 16:00:00 31 17 Sur 30 Sudeste 0 -- -- 27
2020-06-01 15:00:00 29.6 16 Sudeste 29 Este 0 -- -- 28
2020-06-01 14:00:00 28.7 14 Sudeste 24 Sur 0 -- -- 27
2020-06-01 13:00:00 28.2 13 Sudeste 23 Sudeste 0 -- -- 27
2020-06-01 12:00:00 26.6 8 Sudeste 17 Sur 0 -- -- 29
2020-06-01 11:00:00 24.6 6 Sudoeste 13 Sur 0 -- -- 34
2020-06-01 10:00:00 22.1 3 Norte 8 Norte 0 -- -- 40
2020-06-01 09:00:00 18.6 2 Sur 5 Este 0 -- -- 57
2020-06-01 08:00:00 14.1 3 Norte 5 Norte 0 -- -- 69
2020-06-01 07:00:00 11.6 4 Noroeste 11 Noroeste 0 -- -- 74
2020-06-01 06:00:00 12.4 6 Noroeste 14 Norte 0 -- -- 72
2020-06-01 05:00:00 13 8 Noroeste 11 Noroeste 0 -- -- 71
2020-06-01 04:00:00 13.8 4 Norte 6 Noroeste 0 -- -- 69
2020-06-01 03:00:00 16.6 3 Oeste 14 Oeste 0 -- -- 57
2020-06-01 02:00:00 15.2 5 Norte 6 Norte 0 -- -- 62
2020-06-01 01:00:00 15.2 6 Norte 8 Norte 0 -- -- 61
2020-06-01 00:00:00 16.6 4 Sur 14 Sudoeste 0 -- -- 56
2020-05-31 23:00:00 18 9 Sudoeste 22 Nordeste 0 -- -- 53
2020-05-31 22:00:00 19.7 13 Este 31 Norte 0 -- -- 48
2020-05-31 21:00:00 21.1 10 Este 25 Sudeste 0 -- -- 40
2020-05-31 20:00:00 23.6 18 Sudeste 26 Sudeste 0 -- -- 36
2020-05-31 19:00:00 25.7 10 Sudeste 20 Sudeste 0 -- -- 33
2020-05-31 18:00:00 26.5 7 Sudeste 22 Sudeste 0 -- -- 32
2020-05-31 17:00:00 26.8 14 Sur 27 Este 0 -- -- 34
2020-05-31 16:00:00 26.9 14 Sudeste 33 Este 0 -- -- 30
2020-05-31 15:00:00 27.8 14 Sudeste 29 Sudeste 0 -- -- 29
2020-05-31 14:00:00 27.6 18 Sudeste 25 Sur 0 -- -- 26
2020-05-31 13:00:00 27.5 13 Sudeste 23 Sudeste 0 -- -- 26
2020-05-31 12:00:00 27.1 11 Sur 23 Sudeste 0 -- -- 25
2020-05-31 11:00:00 24.8 7 Sur 13 Sur 0 -- -- 28
2020-05-31 10:00:00 21.7 3 Sur 7 Sudoeste 0 -- -- 32
2020-05-31 09:00:00 16 0 Calma 6 Sur 0 -- -- 51
2020-05-31 08:00:00 12.2 0 Calma 12 Noroeste 0 -- -- 61
2020-05-31 07:00:00 12.3 10 Noroeste 15 Noroeste 0 -- -- 55
2020-05-31 06:00:00 10.8 12 Noroeste 15 Noroeste 0 -- -- 60
2020-05-31 05:00:00 9.7 4 Norte 5 Noroeste 0 -- -- 63
2020-05-31 04:00:00 11 3 Noroeste 12 Noroeste 0 -- -- 55
2020-05-31 03:00:00 11.4 6 Noroeste 9 Noroeste 0 -- -- 57
2020-05-31 02:00:00 12.2 6 Noroeste 9 Noroeste 0 -- -- 57
2020-05-31 01:00:00 12.2 4 Norte 6 Norte 0 -- -- 60
2020-05-31 00:00:00 14.4 3 Noroeste 5 Sur 0 -- -- 56
2020-05-30 23:00:00 15.8 2 Sur 8 Sudeste 0 -- -- 51
2020-05-30 22:00:00 17.9 2 Norte 14 Este 0 -- -- 45
2020-05-30 21:00:00 21.5 10 Este 20 Sudeste 0 -- -- 44
2020-05-30 20:00:00 25.5 15 Sudeste 26 Este 0 -- -- 37
2020-05-30 19:00:00 27.6 13 Sudeste 25 Sudeste 0 -- -- 34
2020-05-30 18:00:00 26.8 14 Sudeste 28 Sudeste 0 -- -- 36
2020-05-30 17:00:00 28.2 15 Sudeste 32 Sudeste 0 -- -- 32
2020-05-30 16:00:00 26.9 17 Sudeste 31 Sudeste 0 -- -- 30
2020-05-30 15:00:00 27.9 17 Sudeste 29 Sudeste 0 -- -- 22
2020-05-30 14:00:00 27 13 Sudeste 26 Este 0 -- -- 20
2020-05-30 13:00:00 26.2 14 Sudeste 24 Sur 0 -- -- 18
2020-05-30 12:00:00 25.2 12 Sudeste 25 Sudeste 0 -- -- 21
2020-05-30 11:00:00 23.4 5 Sur 13 Sur 0 -- -- 29
2020-05-30 10:00:00 20.7 4 Norte 9 Sudoeste 0 -- -- 38
2020-05-30 09:00:00 17 2 Sudoeste 11 Norte 0 -- -- 57
2020-05-30 08:00:00 13 0 Calma 5 Sudoeste 0 -- -- 69
2020-05-30 07:00:00 10.7 3 Noroeste 9 Norte 0 -- -- 73
2020-05-30 06:00:00 10.4 0 Calma 10 Norte 0 -- -- 73
2020-05-30 05:00:00 11.9 3 Oeste 14 Noroeste 0 -- -- 69
2020-05-30 04:00:00 11.5 5 Norte 10 Noroeste 0 -- -- 72
2020-05-30 03:00:00 12.2 5 Noroeste 9 Norte 0 -- -- 68
2020-05-30 02:00:00 12.2 5 Norte 6 Norte 0 -- -- 68
2020-05-30 01:00:00 14.9 5 Sudoeste 8 Sudoeste 0 -- -- 60
2020-05-30 00:00:00 15.3 5 Sudoeste 9 Sur 0 -- -- 60
2020-05-29 23:00:00 16.7 5 Sur 11 Sudoeste 0 -- -- 56
2020-05-29 22:00:00 18.5 7 Sur 15 Sudeste 0 -- -- 51
2020-05-29 21:00:00 22.4 10 Sudeste 20 Sudeste 0 -- -- 40
2020-05-29 20:00:00 26.6 13 Sudeste 28 Sudeste 0 -- -- 33
2020-05-29 19:00:00 27.8 15 Sudeste 26 Este 0 -- -- 31
2020-05-29 18:00:00 28.3 13 Este 31 Este 0 -- -- 31
2020-05-29 17:00:00 29 17 Sur 34 Sudeste 0 -- -- 29
2020-05-29 16:00:00 28.9 17 Sur 32 Este 0 -- -- 28
2020-05-29 15:00:00 28 12 Sudeste 37 Sur 0 -- -- 27
2020-05-29 14:00:00 27.1 13 Sudeste 27 Sudeste 0 -- -- 27
2020-05-29 13:00:00 26.5 11 Sur 22 Sudeste 0 -- -- 29
2020-05-29 12:00:00 24.9 10 Este 20 Sur 0 -- -- 30
2020-05-29 11:00:00 23.1 6 Sur 13 Este 0 -- -- 33
2020-05-29 10:00:00 21 4 Nordeste 12 Noroeste 0 -- -- 36
2020-05-29 09:00:00 17.1 3 Noroeste 6 Sudoeste 0 -- -- 47
2020-05-29 08:00:00 13.6 3 Sur 15 Norte 0 -- -- 58
2020-05-29 07:00:00 11.6 8 Noroeste 13 Noroeste 0 -- -- 60
2020-05-29 06:00:00 11.2 3 Sur 10 Noroeste 0 -- -- 63
2020-05-29 05:00:00 12.2 4 Noroeste 10 Noroeste 0 -- -- 57
2020-05-29 04:00:00 12.4 5 Noroeste 14 Norte 0 -- -- 57
2020-05-29 03:00:00 12.7 10 Norte 15 Norte 0 -- -- 54
2020-05-29 02:00:00 12.8 8 Noroeste 12 Noroeste 0 -- -- 58
2020-05-29 01:00:00 12 3 Noroeste 8 Norte 0 -- -- 62
2020-05-29 00:00:00 13.7 4 Nordeste 6 Nordeste 0 -- -- 56
2020-05-28 23:00:00 15.2 3 Sudoeste 12 Este 0 -- -- 53
2020-05-28 22:00:00 17.2 9 Sudeste 15 Este 0 -- -- 46
2020-05-28 21:00:00 20.5 9 Este 22 Nordeste 0 -- -- 36
2020-05-28 20:00:00 24 14 Este 26 Este 0 -- -- 31
2020-05-28 19:00:00 25.4 16 Este 26 Este 0 -- -- 30
2020-05-28 18:00:00 25.7 16 Este 28 Nordeste 0 -- -- 29
2020-05-28 17:00:00 25.3 15 Este 31 Nordeste 0 -- -- 31
2020-05-28 16:00:00 24.4 13 Este 36 Nordeste 0 -- -- 36
2020-05-28 15:00:00 24.5 18 Nordeste 27 Nordeste 0 -- -- 37
2020-05-28 14:00:00 22.9 11 Sur 21 Sudeste 0 -- -- 43
2020-05-28 13:00:00 22.3 11 Sur 31 Nordeste 0 -- -- 41
2020-05-28 12:00:00 22.2 23 Nordeste 35 Nordeste 0 -- -- 40
2020-05-28 11:00:00 22.5 12 Este 30 Norte 0 -- -- 39
2020-05-28 10:00:00 19.8 15 Norte 27 Norte 0 -- -- 49
2020-05-28 09:00:00 17.3 17 Norte 26 Norte 0 -- -- 61
2020-05-28 08:00:00 14.9 15 Noroeste 22 Noroeste 0 -- -- 73
2020-05-28 07:00:00 13.2 10 Norte 18 Noroeste 0 -- -- 78
2020-05-28 06:00:00 13.2 14 Noroeste 20 Noroeste 0 -- -- 80
2020-05-28 05:00:00 13.9 12 Norte 22 Norte 0 -- -- 74
2020-05-28 04:00:00 14.5 12 Norte 19 Norte 0 -- -- 70
2020-05-28 03:00:00 14.1 10 Noroeste 13 Noroeste 0 -- -- 70
2020-05-28 02:00:00 14.3 9 Noroeste 15 Norte 0 -- -- 75
2020-05-28 01:00:00 15.4 12 Norte 22 Nordeste 0 -- -- 77
2020-05-28 00:00:00 16.6 5 Sur 14 Norte 0 -- -- 77
2020-05-27 23:00:00 17.6 7 Oeste 12 Noroeste 0 -- -- 76
2020-05-27 22:00:00 19.4 10 Norte 18 Norte 0 -- -- 63
2020-05-27 21:00:00 21.6 13 Norte 21 Este 0 -- -- 53
2020-05-27 20:00:00 24.7 9 Norte 26 Nordeste 0 -- -- 43
2020-05-27 19:00:00 26.5 14 Este 26 Este 0 -- -- 37
2020-05-27 18:00:00 24.5 20 Norte 28 Norte 0 -- -- 39
2020-05-27 17:00:00 26 14 Este 31 Nordeste 0 -- -- 32
2020-05-27 16:00:00 26.3 14 Este 37 Este 0 -- -- 33
2020-05-27 15:00:00 27.4 18 Este 38 Sudeste 0 -- -- 34
2020-05-27 14:00:00 26.4 17 Este 31 Este 0 -- -- 37
2020-05-27 13:00:00 25.9 11 Este 31 Este 0 -- -- 36
2020-05-27 12:00:00 24.5 11 Nordeste 27 Nordeste 0 -- -- 38
2020-05-27 11:00:00 24 12 Este 26 Nordeste 0 -- -- 38
2020-05-27 10:00:00 22.1 5 Sudeste 12 Nordeste 0 -- -- 45
2020-05-27 09:00:00 19.1 8 Noroeste 15 Noroeste 0 -- -- 52
2020-05-27 08:00:00 15.6 9 Norte 13 Noroeste 0 -- -- 68
2020-05-27 07:00:00 13.2 6 Noroeste 9 Norte 0 -- -- 75
2020-05-27 06:00:00 13.8 7 Norte 15 Noroeste 0 -- -- 73
2020-05-27 05:00:00 14.9 9 Noroeste 14 Noroeste 0 -- -- 68
2020-05-27 04:00:00 14.9 9 Noroeste 16 Noroeste 0 -- -- 68
2020-05-27 03:00:00 14.9 10 Noroeste 15 Noroeste 0 -- -- 69
2020-05-27 02:00:00 14.3 8 Noroeste 12 Noroeste 0 -- -- 75
2020-05-27 01:00:00 15.8 6 Noroeste 14 Oeste 0 -- -- 68
2020-05-27 00:00:00 16.8 9 Oeste 17 Oeste 0 -- -- 68
2020-05-26 23:00:00 17.3 8 Sudoeste 20 Oeste 0 -- -- 72
2020-05-26 22:00:00 18.3 11 Sudoeste 17 Sudoeste 0 -- -- 64
2020-05-26 21:00:00 21.2 5 Este 21 Este 0 -- -- 56
2020-05-26 20:00:00 25 12 Este 26 Este 0 -- -- 46
2020-05-26 19:00:00 26.1 18 Sudeste 33 Este 0 -- -- 47
2020-05-26 18:00:00 26.6 22 Sudeste 32 Este 0 -- -- 46
2020-05-26 17:00:00 28.1 17 Sudeste 31 Este 0 -- -- 35
2020-05-26 16:00:00 27.9 17 Este 32 Este 0 -- -- 34
2020-05-26 15:00:00 28.5 12 Sudeste 27 Este 0 -- -- 30
2020-05-26 14:00:00 27.6 11 Sudeste 23 Este 0 -- -- 30
2020-05-26 13:00:00 26.3 7 Este 21 Este 0 -- -- 38
2020-05-26 12:00:00 24 4 Oeste 19 Nordeste 0 -- -- 42
2020-05-26 11:00:00 22.2 4 Sudeste 10 Sudeste 0 -- -- 44
2020-05-26 10:00:00 20.3 4 Sudeste 8 Sudeste 0 -- -- 49
2020-05-26 09:00:00 16.1 0 Calma 4 Oeste 0 -- -- 65
2020-05-26 08:00:00 14.3 2 Sudeste 4 Sudeste 0 -- -- 72
2020-05-26 07:00:00 14.3 4 Sudoeste 11 Norte 0 -- -- 68
2020-05-26 06:00:00 13.6 4 Noroeste 7 Noroeste 0 -- -- 70
2020-05-26 05:00:00 13.6 0 Calma 8 Noroeste 0 -- -- 73
2020-05-26 04:00:00 13.9 3 Noroeste 6 Sudoeste 0 -- -- 70
2020-05-26 03:00:00 14 0 Calma 14 Noroeste 0 -- -- 67
2020-05-26 02:00:00 14.8 6 Norte 14 Noroeste 0 -- -- 64
2020-05-26 01:00:00 15.3 11 Noroeste 14 Noroeste 0 -- -- 62
2020-05-26 00:00:00 15.2 4 Noroeste 5 Noroeste 0 -- -- 64
2020-05-25 23:00:00 16.6 2 Sudoeste 4 Oeste 0 -- -- 58
2020-05-25 22:00:00 17.4 5 Sudeste 13 Sudeste 0 -- -- 54
2020-05-25 21:00:00 20.2 8 Sudeste 19 Sudeste 0 -- -- 48
2020-05-25 20:00:00 24.6 14 Sudeste 27 Sudeste 0 -- -- 38
2020-05-25 19:00:00 25.5 18 Sudeste 31 Sudeste 0 -- -- 37
2020-05-25 18:00:00 26.3 19 Sudeste 33 Sudeste 0 -- -- 36
2020-05-25 17:00:00 27.1 19 Sudeste 33 Este 0 -- -- 34
2020-05-25 16:00:00 27.3 13 Este 30 Sudeste 0 -- -- 34
2020-05-25 15:00:00 28.8 10 Sudeste 24 Sur 0 -- -- 29
2020-05-25 14:00:00 26.3 15 Sudeste 24 Sudeste 0 -- -- 31
2020-05-25 13:00:00 23.7 15 Sudeste 24 Sudeste 0 -- -- 35
2020-05-25 12:00:00 22.5 13 Sudeste 21 Sudeste 0 -- -- 42
2020-05-25 11:00:00 22.8 12 Sudeste 20 Sudeste 0 -- -- 42
2020-05-25 10:00:00 20.2 2 Sudoeste 10 Sur 0 -- -- 52
2020-05-25 09:00:00 16.6 5 Sur 8 Sudeste 0 -- -- 70
2020-05-25 08:00:00 14.3 3 Sudeste 15 Noroeste 0 -- -- 78
2020-05-25 07:00:00 13.7 13 Noroeste 17 Noroeste 0 -- -- 78
2020-05-25 06:00:00 13.5 6 Noroeste 13 Noroeste 0 -- -- 79
2020-05-25 05:00:00 11.7 0 Calma 6 Noroeste 0 -- -- 85
2020-05-25 04:00:00 13 7 Norte 12 Noroeste 0 -- -- 81
2020-05-25 03:00:00 13.6 5 Noroeste 11 Noroeste 0 -- -- 83
2020-05-25 02:00:00 13.8 4 Norte 8 Norte 0 -- -- 80
2020-05-25 01:00:00 15.5 2 Oeste 9 Sudoeste 0 -- -- 78
2020-05-25 00:00:00 15.7 8 Sudoeste 10 Sudoeste 0 -- -- 77
2020-05-24 23:00:00 16.3 7 Sudoeste 12 Sur 0 -- -- 69
2020-05-24 22:00:00 18 9 Sudoeste 18 Sudeste 0 -- -- 61
2020-05-24 21:00:00 20.2 12 Sudeste 26 Sudeste 0 -- -- 55
2020-05-24 20:00:00 24.5 18 Sudeste 27 Sudeste 0 -- -- 41
2020-05-24 19:00:00 27.2 17 Sudeste 26 Sudeste 0 -- -- 34
2020-05-24 18:00:00 28.3 18 Sudeste 26 Este 0 -- -- 34
2020-05-24 17:00:00 28.5 14 Sudeste 30 Sudeste 0 -- -- 33
2020-05-24 16:00:00 28.7 15 Sudeste 31 Sudeste 0 -- -- 33
2020-05-24 15:00:00 28.4 14 Sudeste 27 Nordeste 0 -- -- 33
2020-05-24 14:00:00 27.3 17 Sudeste 28 Sudeste 0 -- -- 35
2020-05-24 13:00:00 27.2 11 Este 19 Este 0 -- -- 31
2020-05-24 12:00:00 25.2 6 Sudoeste 15 Sudoeste 0 -- -- 35
2020-05-24 11:00:00 24.1 4 Sur 13 Sudeste 0 -- -- 39
2020-05-24 10:00:00 22.2 5 Sur 9 Sur 0 -- -- 41
2020-05-24 09:00:00 18.6 3 Sur 6 Sur 0 -- -- 57
2020-05-24 08:00:00 15.6 4 Sudoeste 7 Sudoeste 0 -- -- 70
2020-05-24 07:00:00 13.4 3 Noroeste 12 Noroeste 0 -- -- 74
2020-05-24 06:00:00 15.3 10 Noroeste 13 Noroeste 0 -- -- 64
2020-05-24 05:00:00 15.2 6 Noroeste 9 Nordeste 0 -- -- 69
2020-05-24 04:00:00 15.1 3 Sudoeste 11 Noroeste 0 -- -- 73
2020-05-24 03:00:00 14.9 6 Norte 8 Norte 0 -- -- 74
2020-05-24 02:00:00 15.9 3 Noroeste 7 Noroeste 0 -- -- 70
2020-05-24 01:00:00 17.1 3 Noroeste 6 Noroeste 0 -- -- 68
2020-05-24 00:00:00 19.3 4 Norte 6 Norte 0 -- -- 58
2020-05-23 23:00:00 19.5 3 Nordeste 5 Norte 0 -- -- 59
2020-05-23 22:00:00 22.3 0 Calma 12 Este 0 -- -- 49
2020-05-23 21:00:00 25.3 9 Este 20 Este 0 -- -- 41
2020-05-23 20:00:00 28.7 13 Sudeste 24 Sudeste 0 -- -- 36
2020-05-23 19:00:00 30.1 17 Sudeste 26 Sudeste 0 -- -- 32
2020-05-23 18:00:00 31.5 16 Sudeste 29 Sudeste 0 -- -- 30
2020-05-23 17:00:00 31.6 18 Sudeste 29 Sur 0 -- -- 30
2020-05-23 16:00:00 32.1 15 Sudeste 26 Sudeste 0 -- -- 29
2020-05-23 15:00:00 31.8 13 Sudeste 24 Sudeste 0 -- -- 27
2020-05-23 14:00:00 31.3 12 Sudeste 22 Sudeste 0 -- -- 27
2020-05-23 13:00:00 30.3 8 Sudeste 25 Sudeste 0 -- -- 29
2020-05-23 12:00:00 29.3 8 Sur 17 Sudeste 0 -- -- 29
2020-05-23 11:00:00 27.4 9 Sudeste 14 Sudeste 0 -- -- 28
2020-05-23 10:00:00 24.3 4 Sur 9 Sur 0 -- -- 41
2020-05-23 09:00:00 20.3 2 Sur 4 Sur 0 -- -- 62
2020-05-23 08:00:00 16.3 0 Calma 5 Norte 0 -- -- 78
2020-05-23 07:00:00 14 0 Calma 6 Noroeste 0 -- -- 81
2020-05-23 06:00:00 14 3 Norte 6 Noroeste 0 -- -- 80
2020-05-23 05:00:00 14.6 5 Noroeste 8 Noroeste 0 -- -- 79
2020-05-23 04:00:00 15.1 5 Noroeste 9 Norte 0 -- -- 78
2020-05-23 03:00:00 15.4 7 Noroeste 9 Noroeste 0 -- -- 77
2020-05-23 02:00:00 15.5 4 Noroeste 5 Noroeste 0 -- -- 79
2020-05-23 01:00:00 16.7 3 Norte 4 Norte 0 -- -- 76
2020-05-23 00:00:00 18.4 2 Norte 8 Este 0 -- -- 69
2020-05-22 23:00:00 20.1 3 Sudeste 7 Este 0 -- -- 61
2020-05-22 22:00:00 21.6 2 Este 12 Este 0 -- -- 56
2020-05-22 21:00:00 24.8 6 Este 21 Este 0 -- -- 49
2020-05-22 20:00:00 29 16 Este 30 Este 0 -- -- 37
2020-05-22 19:00:00 31.3 17 Sudeste 31 Sudeste 0 -- -- 34
2020-05-22 18:00:00 32 18 Sudeste 35 Sudeste 0 -- -- 33
2020-05-22 17:00:00 32.9 19 Sudeste 30 Este 0 -- -- 32
2020-05-22 16:00:00 32.9 15 Sudeste 29 Este 0 -- -- 32
2020-05-22 15:00:00 32.9 15 Sudeste 29 Sudeste 0 -- -- 32
2020-05-22 14:00:00 32.7 16 Sudeste 28 Sudeste 0 -- -- 33
2020-05-22 13:00:00 32.3 13 Sudeste 23 Sur 0 -- -- 36
2020-05-22 12:00:00 30.9 6 Sur 12 Sudeste 0 -- -- 37
2020-05-22 11:00:00 29.3 5 Sudeste 10 Sur 0 -- -- 39
2020-05-22 10:00:00 26.2 6 Nordeste 13 Norte 0 -- -- 44
2020-05-22 09:00:00 22.1 4 Sur 8 Norte 0 -- -- 59
2020-05-22 08:00:00 19.9 2 Norte 17 Norte 0 -- -- 61
2020-05-22 07:00:00 18.1 12 Norte 20 Noroeste 0 -- -- 65
2020-05-22 06:00:00 17.7 12 Norte 18 Norte 0 -- -- 68
2020-05-22 05:00:00 16.6 5 Sudoeste 16 Noroeste 0 -- -- 77
2020-05-22 04:00:00 17.7 11 Norte 15 Noroeste 0 -- -- 71
2020-05-22 03:00:00 17.4 6 Noroeste 9 Noroeste 0 -- -- 72
2020-05-22 02:00:00 17.3 6 Noroeste 9 Noroeste 0 -- -- 75
2020-05-22 01:00:00 17.7 5 Norte 6 Norte 0 -- -- 77
2020-05-22 00:00:00 19.5 0 Calma 4 Noroeste 0 -- -- 76
2020-05-21 23:00:00 21.2 0 Calma 6 Nordeste 0 -- -- 67
2020-05-21 22:00:00 21.7 4 Este 12 Sudeste 0 -- -- 60
2020-05-21 21:00:00 24.9 9 Sudeste 19 Sudeste 0 -- -- 50
2020-05-21 20:00:00 28.7 13 Sudeste 25 Sudeste 0 -- -- 44
2020-05-21 19:00:00 30 18 Sudeste 28 Sudeste 0 -- -- 42
2020-05-21 18:00:00 30.5 21 Sudeste 34 Sudeste 0 -- -- 39
2020-05-21 17:00:00 31.7 14 Sudeste 30 Este 0 -- -- 36
2020-05-21 16:00:00 32 14 Sudeste 30 Sudeste 0 -- -- 33
2020-05-21 15:00:00 31.5 18 Sudeste 33 Sur 0 -- -- 35
2020-05-21 14:00:00 31.6 17 Sudeste 25 Sudeste 0 -- -- 33
2020-05-21 13:00:00 31.6 14 Sudeste 23 Sudeste 0 -- -- 35
2020-05-21 12:00:00 30.5 10 Sudeste 17 Sur 0 -- -- 37
2020-05-21 11:00:00 28.7 4 Este 15 Norte 0 -- -- 35
2020-05-21 10:00:00 25.4 4 Norte 19 Noroeste 0 -- -- 42
2020-05-21 09:00:00 22.7 9 Noroeste 23 Noroeste 0 -- -- 46
2020-05-21 08:00:00 20.5 18 Noroeste 24 Noroeste 0 -- -- 50
2020-05-21 07:00:00 19.2 15 Noroeste 26 Noroeste 0 -- -- 53
2020-05-21 06:00:00 19.1 14 Norte 23 Noroeste 0 -- -- 54
2020-05-21 05:00:00 18.6 15 Noroeste 22 Noroeste 0 -- -- 57
2020-05-21 04:00:00 16.5 3 Nordeste 10 Norte 0 -- -- 69
2020-05-21 03:00:00 16.4 4 Sudoeste 8 Noroeste 0 -- -- 72
2020-05-21 02:00:00 16.7 2 Sudoeste 9 Noroeste 0 -- -- 69
2020-05-21 01:00:00 17.5 4 Noroeste 13 Noroeste 0 -- -- 65
2020-05-21 00:00:00 18.8 11 Noroeste 13 Noroeste 0 -- -- 60
2020-05-20 23:00:00 19 6 Noroeste 9 Oeste 0 -- -- 63
2020-05-20 22:00:00 20.9 5 Norte 10 Nordeste 0 -- -- 56
2020-05-20 21:00:00 24.8 9 Este 12 Sudeste 0 -- -- 46
2020-05-20 20:00:00 27.4 9 Sudeste 20 Sudeste 0 -- -- 39
2020-05-20 19:00:00 27.8 13 Sudeste 27 Sudeste 0 -- -- 37
2020-05-20 18:00:00 32.1 12 Sur 25 Este 0 -- -- 32
2020-05-20 17:00:00 32.4 15 Sudeste 31 Sudeste 0 -- -- 31
2020-05-20 16:00:00 32.1 14 Sudeste 40 Sudeste 0 -- -- 30
2020-05-20 15:00:00 32.5 5 Sudeste 23 Este 0 -- -- 25
2020-05-20 14:00:00 29.1 11 Nordeste 21 Norte 0 -- -- 29
2020-05-20 13:00:00 30.4 7 Sur 21 Sudoeste 0 -- -- 27
2020-05-20 12:00:00 29.7 3 Sudeste 14 Este 0 -- -- 27
2020-05-20 11:00:00 27.5 3 Noroeste 16 Noroeste 0 -- -- 34
2020-05-20 10:00:00 24.8 5 Norte 18 Noroeste 0 -- -- 42
2020-05-20 09:00:00 21.1 16 Noroeste 23 Noroeste 0 -- -- 47
2020-05-20 08:00:00 19.1 11 Noroeste 22 Norte 0 -- -- 52
2020-05-20 07:00:00 17.5 10 Noroeste 22 Noroeste 0 -- -- 56
2020-05-20 06:00:00 17.7 11 Noroeste 18 Noroeste 0 -- -- 57
2020-05-20 05:00:00 17.1 5 Noroeste 14 Norte 0 -- -- 62
2020-05-20 04:00:00 15.5 4 Noroeste 10 Noroeste 0 -- -- 72
2020-05-20 03:00:00 16.8 7 Noroeste 18 Noroeste 0 -- -- 67
2020-05-20 02:00:00 17.2 10 Noroeste 15 Noroeste 0 -- -- 68
2020-05-20 01:00:00 16.7 5 Noroeste 10 Noroeste 0 -- -- 70
2020-05-20 00:00:00 17.4 12 Noroeste 16 Noroeste 0 -- -- 67
2020-05-19 23:00:00 17.4 5 Noroeste 8 Noroeste 0 -- -- 72
2020-05-19 22:00:00 20.3 5 Noroeste 8 Noroeste 0 -- -- 59
2020-05-19 21:00:00 22.6 5 Este 13 Sudeste 0 -- -- 54
2020-05-19 20:00:00 24.9 8 Sudeste 18 Sudeste 0 -- -- 44
2020-05-19 19:00:00 29.2 14 Sudeste 28 Sudeste 0 -- -- 35
2020-05-19 18:00:00 29.8 14 Sudeste 26 Sudeste 0 -- -- 34
2020-05-19 17:00:00 29.9 15 Sudeste 34 Sudeste 0 -- -- 36
2020-05-19 16:00:00 29.5 14 Sudeste 30 Sudeste 0 -- -- 36
2020-05-19 15:00:00 29.5 15 Sudeste 26 Este 0 -- -- 34
2020-05-19 14:00:00 30.1 14 Sur 27 Este 0 -- -- 33
2020-05-19 13:00:00 27.8 10 Nordeste 22 Sudeste 0 -- -- 32
2020-05-19 12:00:00 27.7 6 Este 14 Sudeste 0 -- -- 34
2020-05-19 11:00:00 25.8 4 Sur 9 Sur 0 -- -- 39
2020-05-19 10:00:00 23.2 5 Sur 18 Noroeste 0 -- -- 46
2020-05-19 09:00:00 19.4 7 Noroeste 21 Noroeste 0 -- -- 55
2020-05-19 08:00:00 16.7 11 Norte 19 Norte 0 -- -- 62
2020-05-19 07:00:00 14.5 11 Norte 20 Este 0 -- -- 70
2020-05-19 06:00:00 13.2 10 Nordeste 18 Nordeste 0 -- -- 75
2020-05-19 05:00:00 13.2 13 Nordeste 18 Nordeste 0 -- -- 76
2020-05-19 04:00:00 14.1 3 Nordeste 15 Norte 0 -- -- 73
2020-05-19 03:00:00 15.2 9 Norte 15 Noroeste 0 -- -- 69
2020-05-19 02:00:00 14.2 10 Noroeste 17 Noroeste 0 -- -- 74
2020-05-19 01:00:00 14.2 8 Norte 12 Norte 0 -- -- 76
2020-05-19 00:00:00 14.1 8 Noroeste 12 Noroeste 0 -- -- 78
2020-05-18 23:00:00 14.7 6 Noroeste 8 Norte 0 -- -- 78
2020-05-18 22:00:00 16.5 3 Norte 11 Sudeste 0 -- -- 75
2020-05-18 21:00:00 20.7 8 Sudeste 18 Sudeste 0 -- -- 52
2020-05-18 20:00:00 26 12 Sudeste 20 Sudeste 0 -- -- 42
2020-05-18 19:00:00 26.6 15 Sudeste 24 Sur 0 -- -- 43
2020-05-18 18:00:00 25.9 14 Sudeste 26 Nordeste 0 -- -- 43
2020-05-18 17:00:00 26.5 6 Nordeste 26 Noroeste 0 -- -- 32
2020-05-18 16:00:00 26.2 14 Norte 33 Nordeste 0 -- -- 33
2020-05-18 15:00:00 24.9 11 Norte 31 Noroeste 0 -- -- 35
2020-05-18 14:00:00 25 7 Norte 23 Noroeste 0 -- -- 36
2020-05-18 13:00:00 24.5 9 Noroeste 25 Norte 0 -- -- 37
2020-05-18 12:00:00 23.1 5 Sudeste 17 Oeste 0 -- -- 44
2020-05-18 11:00:00 21.4 11 Noroeste 18 Noroeste 0 -- -- 46
2020-05-18 10:00:00 18.8 13 Noroeste 20 Noroeste 0 -- -- 58
2020-05-18 09:00:00 16.7 4 Sur 31 Noroeste 0 -- -- 67
2020-05-18 08:00:00 14 11 Noroeste 16 Noroeste 0 -- -- 75
2020-05-18 07:00:00 12 10 Norte 17 Noroeste 0 -- -- 81
2020-05-18 06:00:00 11.7 6 Noroeste 15 Noroeste 0 -- -- 80
2020-05-18 05:00:00 11.8 10 Norte 18 Norte 0 -- -- 79
2020-05-18 04:00:00 11.8 10 Norte 18 Noroeste 0 -- -- 81
2020-05-18 03:00:00 11.9 6 Norte 16 Noroeste 0 -- -- 82
2020-05-18 02:00:00 12 0 Calma 19 Noroeste 0 -- -- 83
2020-05-18 01:00:00 13.6 14 Noroeste 24 Noroeste 0 -- -- 78
2020-05-18 00:00:00 13.4 11 Noroeste 17 Noroeste 0 -- -- 83
2020-05-17 23:00:00 13.1 4 Oeste 12 Noroeste 0 -- -- 92
2020-05-17 22:00:00 12.5 6 Nordeste 8 Nordeste 0 -- -- 96
2020-05-17 21:00:00 13.9 6 Sudeste 23 Norte 0 -- -- 94
2020-05-17 20:00:00 13.7 6 Norte 34 Noroeste 7 -- -- 95
2020-05-17 19:00:00 19.8 7 Sudeste 13 Este 0 -- -- 53
2020-05-17 18:00:00 20.1 4 Sur 18 Sur 0 -- -- 56
2020-05-17 17:00:00 20.5 6 Sudoeste 14 Sudeste 0 -- -- 59
2020-05-17 16:00:00 18.5 7 Sudeste 15 Sur 0 -- -- 72
2020-05-17 15:00:00 14.3 4 Sur 14 Sudoeste 0.2 -- -- 97
2020-05-17 14:00:00 12.3 8 Sudoeste 15 Sudoeste 3.2 -- -- 97
2020-05-17 13:00:00 12 7 Este 25 Norte 25.2 -- -- 96
2020-05-17 12:00:00 18.5 4 Nordeste 12 Este 0 -- -- 60
2020-05-17 11:00:00 18.7 3 Este 10 Norte 0 -- -- 63
2020-05-17 10:00:00 15.9 7 Norte 9 Norte 0 -- -- 67
2020-05-17 09:00:00 14.7 3 Nordeste 10 Norte 0 -- -- 74
2020-05-17 08:00:00 12.4 6 Norte 17 Noroeste 0 -- -- 84
2020-05-17 07:00:00 12.3 9 Noroeste 18 Noroeste 0 -- -- 81
2020-05-17 06:00:00 11.8 2 Este 17 Noroeste 0 -- -- 85
2020-05-17 05:00:00 12.1 11 Noroeste 19 Noroeste 0 -- -- 86
2020-05-17 04:00:00 10.8 4 Nordeste 9 Noroeste 0 -- -- 92
2020-05-17 03:00:00 11.8 5 Norte 8 Norte 0 -- -- 92
2020-05-17 02:00:00 12.4 2 Norte 6 Norte 0 -- -- 91
2020-05-17 01:00:00 12.5 2 Noroeste 6 Oeste 0 -- -- 92
2020-05-17 00:00:00 12.5 2 Norte 4 Norte 0 -- -- 92
2020-05-16 23:00:00 12.2 0 Calma 5 Noroeste 0 -- -- 91
2020-05-16 22:00:00 13.2 2 Norte 5 Este 0 -- -- 87
2020-05-16 21:00:00 14 2 Norte 5 Norte 0 -- -- 81
2020-05-16 20:00:00 15.3 0 Calma 9 Sudeste 0 -- -- 70
2020-05-16 19:00:00 15.6 4 Sudeste 19 Sur 0 -- -- 73
2020-05-16 18:00:00 15.3 9 Sudeste 17 Norte 0.4 -- -- 76
2020-05-16 17:00:00 15.7 18 Norte 32 Norte 0 -- -- 68
2020-05-16 16:00:00 17.5 20 Nordeste 31 Nordeste 0 -- -- 62
2020-05-16 15:00:00 18.1 14 Este 26 Este 0 -- -- 54
2020-05-16 14:00:00 20.2 11 Este 22 Este 0 -- -- 46
2020-05-16 13:00:00 17.7 11 Norte 20 Norte 0 -- -- 56
2020-05-16 12:00:00 17.1 12 Noroeste 23 Noroeste 0 -- -- 61
2020-05-16 11:00:00 15.8 15 Norte 26 Noroeste 0 -- -- 68
2020-05-16 10:00:00 14.5 18 Norte 27 Noroeste 0 -- -- 79
2020-05-16 09:00:00 13.1 17 Norte 26 Norte 0 -- -- 81
2020-05-16 08:00:00 10.7 12 Norte 16 Noroeste 0 -- -- 90
2020-05-16 07:00:00 9.8 14 Norte 20 Norte 0 -- -- 92
2020-05-16 06:00:00 8.9 12 Noroeste 17 Noroeste 0 -- -- 94
2020-05-16 05:00:00 9.5 12 Noroeste 15 Noroeste 0 -- -- 91
2020-05-16 04:00:00 9.1 8 Noroeste 12 Noroeste 0 -- -- 93
2020-05-16 03:00:00 9 4 Oeste 9 Norte 0 -- -- 94
2020-05-16 02:00:00 9.6 5 Oeste 10 Noroeste 0 -- -- 91
2020-05-16 01:00:00 9.4 3 Noroeste 7 Nordeste 0 -- -- 93
2020-05-16 00:00:00 10.7 6 Noroeste 12 Noroeste 0 -- -- 89
2020-05-15 23:00:00 11.9 8 Noroeste 11 Noroeste 0 -- -- 85
2020-05-15 22:00:00 12.3 4 Norte 7 Norte 0 -- -- 89
2020-05-15 21:00:00 13 4 Norte 8 Norte 0 -- -- 87
2020-05-15 20:00:00 13.9 2 Norte 11 Noroeste 0 -- -- 80
2020-05-15 19:00:00 13.8 7 Noroeste 10 Noroeste 0 -- -- 79
2020-05-15 18:00:00 13.6 7 Norte 15 Noroeste 0 -- -- 83
2020-05-15 17:00:00 12.9 8 Norte 14 Norte 0.2 -- -- 88
2020-05-15 16:00:00 13.5 3 Noroeste 11 Sudoeste 0 -- -- 81
2020-05-15 15:00:00 13.3 4 Oeste 6 Sudoeste 0.6 -- -- 84
2020-05-15 14:00:00 13 7 Oeste 13 Noroeste 2 -- -- 85
2020-05-15 13:00:00 13.5 10 Noroeste 16 Noroeste 0.4 -- -- 80
2020-05-15 12:00:00 14.6 10 Norte 20 Norte 0 -- -- 68
2020-05-15 11:00:00 14.4 12 Norte 22 Norte 0 -- -- 69
2020-05-15 10:00:00 13.4 13 Norte 19 Norte 0 -- -- 70
2020-05-15 09:00:00 12.8 14 Norte 20 Norte 0 -- -- 71
2020-05-15 08:00:00 11.9 13 Noroeste 19 Noroeste 0 -- -- 74
2020-05-15 07:00:00 11.3 6 Noroeste 15 Noroeste 0 -- -- 77
2020-05-15 06:00:00 11.4 12 Noroeste 20 Noroeste 0 -- -- 75
2020-05-15 05:00:00 10.6 9 Norte 20 Oeste 0 -- -- 76
2020-05-15 04:00:00 11.1 10 Noroeste 19 Noroeste 0 -- -- 72
2020-05-15 03:00:00 10.6 9 Norte 17 Noroeste 0 -- -- 75
2020-05-15 02:00:00 11.6 9 Noroeste 15 Norte 0 -- -- 71
2020-05-15 01:00:00 11.6 11 Noroeste 15 Noroeste 0 -- -- 70
2020-05-15 00:00:00 11.7 6 Noroeste 14 Noroeste 0 -- -- 77
2020-05-14 23:00:00 12.3 2 Norte 9 Noroeste 0 -- -- 81
2020-05-14 22:00:00 12.6 3 Nordeste 10 Nordeste 0 -- -- 80
2020-05-14 21:00:00 14.8 9 Sudeste 21 Oeste 0 -- -- 68
2020-05-14 20:00:00 19.1 12 Sudoeste 29 Sudoeste 0 -- -- 45
2020-05-14 19:00:00 20.7 17 Oeste 30 Sudoeste 0 -- -- 39
2020-05-14 18:00:00 20.6 19 Sudoeste 36 Oeste 0 -- -- 41
2020-05-14 17:00:00 20 14 Sudoeste 30 Oeste 0 -- -- 40
2020-05-14 16:00:00 19 15 Sur 35 Sudoeste 0 -- -- 53
2020-05-14 15:00:00 19.5 14 Oeste 37 Oeste 0 -- -- 46
2020-05-14 14:00:00 16.9 17 Sudoeste 31 Sudoeste 0 -- -- 52
2020-05-14 13:00:00 17.6 9 Sudoeste 28 Oeste 0 -- -- 50
2020-05-14 12:00:00 14.3 13 Oeste 25 Oeste 0 -- -- 60
2020-05-14 11:00:00 12.9 4 Sudeste 22 Noroeste 0 -- -- 78
2020-05-14 10:00:00 11.2 20 Noroeste 31 Noroeste 0 -- -- 68
2020-05-14 09:00:00 9.8 5 Noroeste 33 Noroeste 0.6 -- -- 82
2020-05-14 08:00:00 10 18 Oeste 31 Oeste 3.6 -- -- 83
2020-05-14 07:00:00 11.1 5 Oeste 34 Oeste 0.6 -- -- 86
2020-05-14 06:00:00 11.1 19 Oeste 34 Oeste 0.8 -- -- 85
2020-05-14 05:00:00 11.4 5 Sudoeste 17 Oeste 0.8 -- -- 88
2020-05-14 04:00:00 12 0 Calma 8 Sudoeste 0.4 -- -- 84
2020-05-14 03:00:00 12.1 6 Sur 18 Sudeste 0 -- -- 77
2020-05-14 02:00:00 12 4 Norte 6 Norte 0 -- -- 84
2020-05-14 01:00:00 12.1 0 Calma 6 Sur 0 -- -- 82
2020-05-14 00:00:00 12.8 3 Sur 8 Noroeste 0 -- -- 76
2020-05-13 23:00:00 13.9 0 Calma 10 Noroeste 0 -- -- 71
2020-05-13 22:00:00 14.4 3 Sudeste 6 Sudeste 0 -- -- 64
2020-05-13 21:00:00 16.1 2 Este 23 Sudeste 0 -- -- 57
2020-05-13 20:00:00 18.5 17 Sudeste 26 Sudeste 0 -- -- 49
2020-05-13 19:00:00 21.3 18 Sudeste 30 Sudeste 0 -- -- 42
2020-05-13 18:00:00 22 16 Sudeste 30 Este 0 -- -- 42
2020-05-13 17:00:00 21.4 20 Este 32 Este 0 -- -- 42
2020-05-13 16:00:00 22.9 4 Sudoeste 18 Este 0 -- -- 36
2020-05-13 15:00:00 22.7 6 Oeste 21 Sur 0 -- -- 37
2020-05-13 14:00:00 22.9 11 Sur 23 Sur 0 -- -- 36
2020-05-13 13:00:00 20.7 8 Sudoeste 19 Noroeste 0 -- -- 42
2020-05-13 12:00:00 18.5 10 Oeste 20 Oeste 0 -- -- 46
2020-05-13 11:00:00 17 13 Oeste 24 Oeste 0 -- -- 50
2020-05-13 10:00:00 15 3 Oeste 22 Sudoeste 0 -- -- 58
2020-05-13 09:00:00 12.6 14 Oeste 22 Oeste 0 -- -- 65
2020-05-13 08:00:00 10.1 12 Noroeste 19 Sudoeste 0 -- -- 76
2020-05-13 07:00:00 8.3 9 Norte 20 Norte 0 -- -- 82
2020-05-13 06:00:00 8.6 15 Norte 19 Norte 0 -- -- 81
2020-05-13 05:00:00 8.8 5 Noroeste 16 Oeste 0 -- -- 79
2020-05-13 04:00:00 8.4 6 Norte 17 Noroeste 0 -- -- 82
2020-05-13 03:00:00 9.4 8 Noroeste 22 Noroeste 0 -- -- 78
2020-05-13 02:00:00 9.9 5 Noroeste 22 Noroeste 0 -- -- 74
2020-05-13 01:00:00 10 17 Noroeste 26 Oeste 0 -- -- 76
2020-05-13 00:00:00 10.4 5 Este 24 Oeste 0 -- -- 76
2020-05-12 23:00:00 11.8 6 Oeste 35 Oeste 0 -- -- 69
2020-05-12 22:00:00 12.4 31 Oeste 51 Oeste 0 -- -- 67
2020-05-12 21:00:00 13.3 4 Sur 9 Noroeste 0.2 -- -- 84
2020-05-12 20:00:00 14.1 6 Noroeste 20 Oeste 0 -- -- 75
2020-05-12 19:00:00 15.4 6 Oeste 20 Oeste 0 -- -- 67
2020-05-12 18:00:00 14.5 12 Oeste 30 Oeste 0 -- -- 71
2020-05-12 17:00:00 13.8 19 Noroeste 42 Oeste 0 -- -- 73
2020-05-12 16:00:00 12.5 23 Oeste 50 Oeste 0.6 -- -- 80
2020-05-12 15:00:00 11.6 23 Oeste 42 Oeste 4.2 -- -- 86
2020-05-12 14:00:00 17.5 9 Sudeste 24 Sudeste 0.4 -- -- 67
2020-05-12 13:00:00 18.9 13 Sudeste 31 Este 0 -- -- 53
2020-05-12 12:00:00 21 14 Este 25 Norte 0 -- -- 46
2020-05-12 11:00:00 17.7 21 Norte 28 Norte 0 -- -- 55
2020-05-12 10:00:00 17.7 11 Noroeste 24 Norte 0 -- -- 52
2020-05-12 09:00:00 16.3 13 Noroeste 25 Norte 0 -- -- 59
2020-05-12 08:00:00 14.4 12 Noroeste 23 Noroeste 0 -- -- 62
2020-05-12 07:00:00 13.8 14 Norte 23 Noroeste 0 -- -- 64
2020-05-12 06:00:00 14.4 8 Noroeste 16 Noroeste 0 -- -- 63
2020-05-12 05:00:00 14 7 Sudoeste 16 Sudoeste 0 -- -- 65
2020-05-12 04:00:00 13.3 12 Norte 17 Noroeste 0 -- -- 65
2020-05-12 03:00:00 13.8 4 Norte 10 Noroeste 0 -- -- 62
2020-05-12 02:00:00 13.4 11 Noroeste 14 Noroeste 0 -- -- 62
2020-05-12 01:00:00 15 9 Noroeste 18 Noroeste 0 -- -- 56
2020-05-12 00:00:00 15.9 9 Noroeste 23 Oeste 0 -- -- 53
2020-05-11 23:00:00 16.9 10 Oeste 17 Oeste 0 -- -- 50
2020-05-11 22:00:00 17.9 3 Oeste 17 Sudoeste 0 -- -- 48
2020-05-11 21:00:00 19.8 10 Oeste 20 Noroeste 0 -- -- 43
2020-05-11 20:00:00 22.4 13 Oeste 36 Sudoeste 0 -- -- 38
2020-05-11 19:00:00 23.8 19 Sudoeste 39 Sudoeste 0 -- -- 35
2020-05-11 18:00:00 24.8 24 Sudoeste 46 Sudoeste 0 -- -- 33
2020-05-11 17:00:00 24.9 26 Sudoeste 39 Sudoeste 0 -- -- 34
2020-05-11 16:00:00 25.1 20 Sudoeste 40 Sudoeste 0 -- -- 34
2020-05-11 15:00:00 24.2 17 Oeste 41 Sudoeste 0 -- -- 35
2020-05-11 14:00:00 23.5 23 Sudoeste 40 Sudoeste 0 -- -- 35
2020-05-11 13:00:00 22.7 21 Sudoeste 37 Sudoeste 0 -- -- 38
2020-05-11 12:00:00 21.1 14 Sudoeste 28 Oeste 0 -- -- 43
2020-05-11 11:00:00 17.8 17 Sudoeste 29 Oeste 0 -- -- 51
2020-05-11 10:00:00 16.3 13 Sudoeste 38 Sudoeste 0 -- -- 56
2020-05-11 09:00:00 14.8 16 Sudoeste 31 Oeste 0 -- -- 63
2020-05-11 08:00:00 12.7 17 Sudoeste 35 Sudoeste 0 -- -- 72
2020-05-11 07:00:00 10.8 5 Sudoeste 12 Sudoeste 0 -- -- 80
2020-05-11 06:00:00 10.2 4 Norte 22 Sudoeste 0 -- -- 81
2020-05-11 05:00:00 12.3 12 Oeste 27 Sudoeste 0 -- -- 73
2020-05-11 04:00:00 11.9 5 Oeste 20 Sudoeste 0 -- -- 76
2020-05-11 03:00:00 12.5 4 Sur 24 Oeste 0 -- -- 73
2020-05-11 02:00:00 13.3 12 Oeste 32 Oeste 0 -- -- 69
2020-05-11 01:00:00 13.5 17 Oeste 32 Sudoeste 0 -- -- 67
2020-05-11 00:00:00 13.2 9 Sudoeste 24 Oeste 0 -- -- 66
2020-05-10 23:00:00 14.1 12 Sudoeste 44 Sudoeste 0 -- -- 60
2020-05-10 22:00:00 14.6 16 Oeste 34 Oeste 0 -- -- 57
2020-05-10 21:00:00 15.4 16 Oeste 38 Oeste 0 -- -- 54
2020-05-10 20:00:00 18.3 19 Oeste 51 Sudoeste 0 -- -- 39
2020-05-10 19:00:00 19.3 17 Oeste 57 Noroeste 0 -- -- 39
2020-05-10 18:00:00 18.8 29 Oeste 51 Noroeste 0 -- -- 43
2020-05-10 17:00:00 19.5 23 Oeste 44 Oeste 0 -- -- 40
2020-05-10 16:00:00 19.5 30 Sudoeste 51 Sudoeste 0 -- -- 44
2020-05-10 15:00:00 20.4 17 Oeste 39 Sudoeste 0 -- -- 38
2020-05-10 14:00:00 21.1 22 Sudoeste 39 Sur 0 -- -- 37
2020-05-10 13:00:00 19.3 24 Oeste 42 Oeste 0 -- -- 37
2020-05-10 12:00:00 17 10 Sudoeste 33 Oeste 0 -- -- 52
2020-05-10 11:00:00 16 14 Oeste 43 Oeste 0 -- -- 51
2020-05-10 10:00:00 17.6 15 Oeste 42 Oeste 0 -- -- 46
2020-05-10 09:00:00 15.5 14 Oeste 32 Noroeste 0 -- -- 59
2020-05-10 08:00:00 14.2 6 Nordeste 34 Oeste 0 -- -- 68
2020-05-10 07:00:00 14.3 20 Oeste 49 Oeste 0 -- -- 69
2020-05-10 06:00:00 15.3 27 Oeste 43 Oeste 0 -- -- 65
2020-05-10 05:00:00 15.3 13 Oeste 21 Oeste 0 -- -- 63
2020-05-10 04:00:00 13 3 Este 12 Oeste 0 -- -- 89
2020-05-10 03:00:00 14.6 8 Noroeste 21 Oeste 0 -- -- 69
2020-05-10 02:00:00 15.6 3 Nordeste 10 Norte 0 -- -- 82
2020-05-10 01:00:00 16.2 8 Norte 11 Norte 0 -- -- 81
2020-05-10 00:00:00 16 11 Norte 17 Noroeste 0 -- -- 80
2020-05-09 23:00:00 17 9 Noroeste 19 Noroeste 0 -- -- 76
2020-05-09 22:00:00 17.3 8 Noroeste 13 Noroeste 0 -- -- 69
2020-05-09 21:00:00 18.3 5 Este 16 Este 0 -- -- 65
2020-05-09 20:00:00 20.7 13 Sudeste 22 Sudeste 0 -- -- 60
2020-05-09 19:00:00 20.8 18 Sudeste 31 Sudeste 0 -- -- 63
2020-05-09 18:00:00 22.8 18 Sudeste 31 Este 0 -- -- 56
2020-05-09 17:00:00 21.8 23 Este 39 Sudeste 0 -- -- 62
2020-05-09 16:00:00 25 23 Sudeste 39 Este 0 -- -- 54
2020-05-09 15:00:00 26.1 20 Sudeste 39 Este 0 -- -- 49
2020-05-09 14:00:00 24.8 18 Sudeste 32 Sudeste 0 -- -- 53
2020-05-09 13:00:00 26 15 Sudeste 27 Sudeste 0 -- -- 51
2020-05-09 12:00:00 24.4 13 Sudeste 21 Este 0 -- -- 55
2020-05-09 11:00:00 23.4 6 Sudeste 15 Sudeste 0 -- -- 58
2020-05-09 10:00:00 20.9 4 Sudeste 17 Noroeste 0 -- -- 65
2020-05-09 09:00:00 16.6 7 Nordeste 23 Noroeste 0 -- -- 80
2020-05-09 08:00:00 14.3 14 Noroeste 20 Noroeste 0 -- -- 89
2020-05-09 07:00:00 14 9 Norte 17 Noroeste 0 -- -- 92
2020-05-09 06:00:00 13.6 6 Noroeste 9 Noroeste 0 -- -- 93
2020-05-09 05:00:00 13.6 5 Noroeste 8 Nordeste 0 -- -- 94
2020-05-09 04:00:00 14.5 3 Noroeste 8 Norte 0 -- -- 92
2020-05-09 03:00:00 15.5 6 Este 20 Este 0 -- -- 90
2020-05-09 02:00:00 15.6 8 Sudeste 14 Este 0 -- -- 90
2020-05-09 01:00:00 15.4 4 Nordeste 7 Noroeste 0 -- -- 89
2020-05-09 00:00:00 16.2 5 Este 17 Sudeste 0 -- -- 88
2020-05-08 23:00:00 16.7 11 Sudeste 22 Sudeste 0 -- -- 85
2020-05-08 22:00:00 16.9 16 Sudeste 26 Sudeste 0 -- -- 82
2020-05-08 21:00:00 19.2 12 Sudeste 19 Este 0 -- -- 70
2020-05-08 20:00:00 23.4 14 Sudeste 22 Sudeste 0 -- -- 54
2020-05-08 19:00:00 26.1 14 Sudeste 22 Sudeste 0 -- -- 45
2020-05-08 18:00:00 26.2 13 Sudeste 25 Este 0 -- -- 46
2020-05-08 17:00:00 26.6 17 Sudeste 28 Este 0 -- -- 45
2020-05-08 16:00:00 27.2 15 Sudeste 29 Sudeste 0 -- -- 42
2020-05-08 15:00:00 26.9 18 Sudeste 33 Sudeste 0 -- -- 41
2020-05-08 14:00:00 27.5 13 Sudeste 23 Sudeste 0 -- -- 35
2020-05-08 13:00:00 26.1 11 Sudeste 20 Este 0 -- -- 37
2020-05-08 12:00:00 24.7 5 Sudoeste 17 Sudeste 0 -- -- 37
2020-05-08 11:00:00 22.7 8 Sudeste 15 Sur 0 -- -- 41
2020-05-08 10:00:00 20.1 10 Norte 23 Norte 0 -- -- 49
2020-05-08 09:00:00 17.6 18 Noroeste 25 Noroeste 0 -- -- 56
2020-05-08 08:00:00 15.7 15 Noroeste 24 Noroeste 0 -- -- 60
2020-05-08 07:00:00 13.1 10 Noroeste 19 Noroeste 0 -- -- 68
2020-05-08 06:00:00 14.9 8 Noroeste 26 Oeste 0 -- -- 61
2020-05-08 05:00:00 14 15 Nordeste 22 Nordeste 0 -- -- 65
2020-05-08 04:00:00 14.1 7 Noroeste 14 Noroeste 0 -- -- 65
2020-05-08 03:00:00 14.9 11 Noroeste 16 Noroeste 0 -- -- 62
2020-05-08 02:00:00 13.3 4 Noroeste 8 Nordeste 0 -- -- 67
2020-05-08 01:00:00 12.9 2 Nordeste 12 Noroeste 0 -- -- 69
2020-05-08 00:00:00 14.7 7 Noroeste 13 Noroeste 0 -- -- 61
2020-05-07 23:00:00 15.6 9 Noroeste 11 Noroeste 0 -- -- 59
2020-05-07 22:00:00 16.8 6 Noroeste 16 Nordeste 0 -- -- 53
2020-05-07 21:00:00 19.6 13 Nordeste 24 Nordeste 0 -- -- 44
2020-05-07 20:00:00 21.7 13 Nordeste 22 Nordeste 0 -- -- 40
2020-05-07 19:00:00 24.5 12 Este 29 Nordeste 0 -- -- 34
2020-05-07 18:00:00 23.7 14 Este 28 Este 0 -- -- 35
2020-05-07 17:00:00 24.8 16 Este 32 Este 0 -- -- 34
2020-05-07 16:00:00 26.4 14 Nordeste 31 Este 0 -- -- 32
2020-05-07 15:00:00 26.4 18 Este 34 Este 0 -- -- 34
2020-05-07 14:00:00 26.4 19 Este 31 Este 0 -- -- 35
2020-05-07 13:00:00 25.9 18 Este 30 Este 0 -- -- 36
2020-05-07 12:00:00 24.8 15 Este 33 Este 0 -- -- 41
2020-05-07 11:00:00 23.7 7 Sudeste 19 Sudeste 0 -- -- 46
2020-05-07 10:00:00 21.2 5 Sur 9 Sur 0 -- -- 47
2020-05-07 09:00:00 17.4 3 Sudoeste 6 Sudeste 0 -- -- 64
2020-05-07 08:00:00 14.7 3 Noroeste 8 Norte 0 -- -- 71
2020-05-07 07:00:00 12.4 0 Calma 5 Nordeste 0 -- -- 78
2020-05-07 06:00:00 13.5 5 Nordeste 11 Noroeste 0 -- -- 77
2020-05-07 05:00:00 13.1 2 Norte 6 Sudoeste 0 -- -- 82
2020-05-07 04:00:00 13.6 0 Calma 6 Sudoeste 0 -- -- 80
2020-05-07 03:00:00 14.7 0 Calma 3 Noroeste 0 -- -- 74
2020-05-07 02:00:00 14.7 3 Noroeste 6 Nordeste 0 -- -- 75
2020-05-07 01:00:00 15.1 3 Oeste 12 Norte 0 -- -- 72
2020-05-07 00:00:00 15.9 6 Noroeste 8 Noroeste 0 -- -- 69
2020-05-06 23:00:00 16.1 4 Norte 7 Norte 0 -- -- 68
2020-05-06 22:00:00 17.9 4 Sudoeste 9 Sur 0 -- -- 61
2020-05-06 21:00:00 20.8 6 Sur 17 Sudeste 0 -- -- 55
2020-05-06 20:00:00 22.9 12 Sudeste 21 Sudeste 0 -- -- 50
2020-05-06 19:00:00 25.7 14 Sudeste 24 Este 0 -- -- 45
2020-05-06 18:00:00 27.6 17 Sudeste 27 Este 0 -- -- 43
2020-05-06 17:00:00 28.7 16 Sudeste 31 Este 0 -- -- 43
2020-05-06 16:00:00 30.2 17 Este 29 Sudeste 0 -- -- 38
2020-05-06 15:00:00 30.5 15 Sudeste 29 Sur 0 -- -- 34
2020-05-06 14:00:00 30 16 Sudeste 28 Sudeste 0 -- -- 34
2020-05-06 13:00:00 30 10 Sudeste 18 Sudeste 0 -- -- 31
2020-05-06 12:00:00 28 5 Este 18 Norte 0 -- -- 33
2020-05-06 11:00:00 25.1 12 Norte 22 Noroeste 0 -- -- 39
2020-05-06 10:00:00 22.5 13 Norte 21 Noroeste 0 -- -- 44
2020-05-06 09:00:00 19.5 7 Noroeste 16 Noroeste 0 -- -- 54
2020-05-06 08:00:00 16.3 9 Norte 13 Noroeste 0 -- -- 67
2020-05-06 07:00:00 14.1 4 Norte 13 Norte 0 -- -- 77
2020-05-06 06:00:00 15.3 10 Norte 17 Norte 0 -- -- 76
2020-05-06 05:00:00 14.5 0 Calma 10 Norte 0 -- -- 81
2020-05-06 04:00:00 15.1 3 Oeste 8 Norte 0 -- -- 77
2020-05-06 03:00:00 15.7 0 Calma 6 Noroeste 0 -- -- 76
2020-05-06 02:00:00 15.5 3 Noroeste 6 Norte 0 -- -- 76
2020-05-06 01:00:00 16.4 0 Calma 8 Oeste 0 -- -- 72
2020-05-06 00:00:00 17.6 5 Noroeste 11 Norte 0 -- -- 69
2020-05-05 23:00:00 19.4 4 Sudoeste 9 Sudoeste 0 -- -- 61
2020-05-05 22:00:00 20.8 7 Sudoeste 10 Sudoeste 0 -- -- 58
2020-05-05 21:00:00 23.9 6 Sudeste 16 Este 0 -- -- 49
2020-05-05 20:00:00 28.4 10 Sudeste 21 Este 0 -- -- 39
2020-05-05 19:00:00 29.1 14 Sudeste 21 Este 0 -- -- 37
2020-05-05 18:00:00 29.4 14 Sudeste 26 Sudeste 0 -- -- 36
2020-05-05 17:00:00 32 14 Sudeste 26 Sudeste 0 -- -- 33
2020-05-05 16:00:00 31.4 14 Sudeste 25 Sudeste 0 -- -- 34
2020-05-05 15:00:00 31.4 15 Sudeste 24 Sudeste 0 -- -- 31
2020-05-05 14:00:00 31.6 15 Sudeste 25 Sudeste 0 -- -- 30
2020-05-05 13:00:00 30 7 Sudeste 17 Sudeste 0 -- -- 34
2020-05-05 12:00:00 28.6 6 Este 14 Sur 0 -- -- 34
2020-05-05 11:00:00 25.7 5 Norte 15 Noroeste 0 -- -- 40
2020-05-05 10:00:00 23.1 11 Noroeste 17 Noroeste 0 -- -- 46
2020-05-05 09:00:00 20.7 13 Noroeste 19 Noroeste 0 -- -- 53
2020-05-05 08:00:00 14.2 2 Norte 14 Noroeste 0 -- -- 70
2020-05-05 07:00:00 14.8 14 Noroeste 18 Noroeste 0 -- -- 63
2020-05-05 06:00:00 13.6 3 Sudeste 6 Noroeste 0 -- -- 70
2020-05-05 05:00:00 14.8 6 Norte 15 Noroeste 0 -- -- 65
2020-05-05 04:00:00 14.2 7 Norte 10 Noroeste 0 -- -- 67
2020-05-05 03:00:00 13.8 7 Este 10 Sudeste 0 -- -- 68
2020-05-05 02:00:00 15.2 6 Noroeste 11 Noroeste 0 -- -- 63
2020-05-05 01:00:00 14.9 5 Noroeste 7 Norte 0 -- -- 65
2020-05-05 00:00:00 17.2 3 Oeste 12 Noroeste 0 -- -- 56
2020-05-04 23:00:00 17 7 Norte 9 Norte 0 -- -- 61
2020-05-04 22:00:00 19 4 Oeste 8 Sudoeste 0 -- -- 55
2020-05-04 21:00:00 23.1 5 Sur 17 Sudeste 0 -- -- 41
2020-05-04 20:00:00 28.2 12 Sudeste 21 Sudeste 0 -- -- 31
2020-05-04 19:00:00 29.9 13 Sudeste 26 Sudeste 0 -- -- 28
2020-05-04 18:00:00 30.2 15 Sudeste 31 Sudeste 0 -- -- 28
2020-05-04 17:00:00 30.2 18 Sudeste 32 Sudeste 0 -- -- 30
2020-05-04 16:00:00 30.8 14 Sudeste 35 Sudeste 0 -- -- 30
2020-05-04 15:00:00 29.4 20 Sudeste 33 Sudeste 0 -- -- 29
2020-05-04 14:00:00 29.8 21 Sudeste 33 Sudeste 0 -- -- 28
2020-05-04 13:00:00 29 19 Sudeste 32 Este 0 -- -- 28
2020-05-04 12:00:00 28.4 15 Sudeste 24 Este 0 -- -- 30
2020-05-04 11:00:00 25.3 5 Sur 10 Sur 0 -- -- 36
2020-05-04 10:00:00 22.2 0 Calma 7 Nordeste 0 -- -- 51
2020-05-04 09:00:00 18 5 Norte 9 Noroeste 0 -- -- 58
2020-05-04 08:00:00 13 6 Norte 10 Noroeste 0 -- -- 69
2020-05-04 07:00:00 10.9 6 Noroeste 9 Norte 0 -- -- 73
2020-05-04 06:00:00 11.1 6 Noroeste 10 Noroeste 0 -- -- 73
2020-05-04 05:00:00 12 0 Calma 5 Noroeste 0 -- -- 76
2020-05-04 04:00:00 12.4 4 Noroeste 8 Noroeste 0 -- -- 69
2020-05-04 03:00:00 12.7 0 Calma 5 Noroeste 0 -- -- 75
2020-05-04 02:00:00 14.1 4 Noroeste 9 Noroeste 0 -- -- 68
2020-05-04 01:00:00 13.9 5 Noroeste 10 Noroeste 0 -- -- 75
2020-05-04 00:00:00 15 6 Noroeste 8 Norte 0 -- -- 73
2020-05-03 23:00:00 15 3 Norte 4 Noroeste 0 -- -- 74
2020-05-03 22:00:00 18.1 4 Norte 9 Este 0 -- -- 60
2020-05-03 21:00:00 22.4 8 Este 17 Este 0 -- -- 48
2020-05-03 20:00:00 27.7 11 Sudeste 28 Sudeste 0 -- -- 29
2020-05-03 19:00:00 29.2 19 Sudeste 30 Sudeste 0 -- -- 26
2020-05-03 18:00:00 30.2 18 Sudeste 29 Sudeste 0 -- -- 32
2020-05-03 17:00:00 30.6 18 Sudeste 31 Sudeste 0 -- -- 30
2020-05-03 16:00:00 31.1 17 Sudeste 32 Sudeste 0 -- -- 29
2020-05-03 15:00:00 30.9 15 Sudeste 29 Sudeste 0 -- -- 27
2020-05-03 14:00:00 30.5 16 Sudeste 27 Sudeste 0 -- -- 27
2020-05-03 13:00:00 29.8 15 Sur 22 Sudeste 0 -- -- 25
2020-05-03 12:00:00 29 12 Sur 21 Sur 0 -- -- 31
2020-05-03 11:00:00 26.4 4 Sudeste 8 Este 0 -- -- 36
2020-05-03 10:00:00 22.3 2 Sudeste 5 Sur 0 -- -- 49
2020-05-03 09:00:00 18 3 Sur 6 Sur 0 -- -- 59
2020-05-03 08:00:00 13.3 0 Calma 6 Sudoeste 0 -- -- 77
2020-05-03 07:00:00 11.9 3 Oeste 6 Oeste 0 -- -- 76
2020-05-03 06:00:00 12.4 4 Sudeste 10 Noroeste 0 -- -- 75
2020-05-03 05:00:00 12.6 5 Noroeste 12 Noroeste 0 -- -- 75
2020-05-03 04:00:00 12.9 3 Sudoeste 9 Oeste 0 -- -- 76
2020-05-03 03:00:00 13.7 2 Noroeste 4 Noroeste 0 -- -- 75
2020-05-03 02:00:00 14.5 0 Calma 5 Sudoeste 0 -- -- 72
2020-05-03 01:00:00 16.1 3 Sudoeste 14 Noroeste 0 -- -- 66
2020-05-03 00:00:00 16.3 7 Noroeste 12 Noroeste 0 -- -- 69